sensor_id;sensor_type;location;lat;lon;timestamp;P1;durP1;ratioP1;P2;durP2;ratioP2
64903;SDS011;51401;48.882;12.598;2023-01-08T00:01:26;11.35;;;9.55;;
64903;SDS011;51401;48.882;12.598;2023-01-08T00:03:51;9.13;;;7.90;;
64903;SDS011;51401;48.882;12.598;2023-01-08T00:06:17;14.00;;;9.55;;
64903;SDS011;51401;48.882;12.598;2023-01-08T00:08:45;11.18;;;8.02;;
64903;SDS011;51401;48.882;12.598;2023-01-08T00:11:11;15.93;;;9.32;;
64903;SDS011;51401;48.882;12.598;2023-01-08T00:13:36;13.95;;;9.20;;
64903;SDS011;51401;48.882;12.598;2023-01-08T00:16:06;14.73;;;9.82;;
64903;SDS011;51401;48.882;12.598;2023-01-08T00:18:33;10.57;;;8.48;;
64903;SDS011;51401;48.882;12.598;2023-01-08T00:20:59;11.30;;;9.23;;
64903;SDS011;51401;48.882;12.598;2023-01-08T00:23:24;20.88;;;13.25;;
64903;SDS011;51401;48.882;12.598;2023-01-08T00:25:50;27.02;;;12.50;;
64903;SDS011;51401;48.882;12.598;2023-01-08T00:28:15;13.95;;;10.30;;
64903;SDS011;51401;48.882;12.598;2023-01-08T00:30:41;18.95;;;12.90;;
64903;SDS011;51401;48.882;12.598;2023-01-08T00:33:06;15.15;;;9.95;;
64903;SDS011;51401;48.882;12.598;2023-01-08T00:35:32;12.18;;;9.40;;
64903;SDS011;51401;48.882;12.598;2023-01-08T00:37:57;14.73;;;9.25;;
64903;SDS011;51401;48.882;12.598;2023-01-08T00:40:22;11.05;;;8.43;;
64903;SDS011;51401;48.882;12.598;2023-01-08T00:42:48;10.43;;;7.93;;
64903;SDS011;51401;48.882;12.598;2023-01-08T00:45:13;11.25;;;7.75;;
64903;SDS011;51401;48.882;12.598;2023-01-08T00:47:38;11.35;;;7.95;;
64903;SDS011;51401;48.882;12.598;2023-01-08T00:50:04;8.82;;;7.10;;
64903;SDS011;51401;48.882;12.598;2023-01-08T00:52:30;11.25;;;7.88;;
64903;SDS011;51401;48.882;12.598;2023-01-08T00:54:55;10.65;;;7.88;;
64903;SDS011;51401;48.882;12.598;2023-01-08T00:57:20;11.05;;;8.52;;
64903;SDS011;51401;48.882;12.598;2023-01-08T00:59:45;12.80;;;8.57;;
64903;SDS011;51401;48.882;12.598;2023-01-08T01:02:11;14.20;;;9.10;;
64903;SDS011;51401;48.882;12.598;2023-01-08T01:04:36;11.77;;;8.73;;
64903;SDS011;51401;48.882;12.598;2023-01-08T01:07:02;12.25;;;8.70;;
64903;SDS011;51401;48.882;12.598;2023-01-08T01:09:27;14.48;;;9.07;;
64903;SDS011;51401;48.882;12.598;2023-01-08T01:11:52;11.57;;;8.05;;
64903;SDS011;51401;48.882;12.598;2023-01-08T01:14:18;14.43;;;9.35;;
64903;SDS011;51401;48.882;12.598;2023-01-08T01:16:43;13.55;;;9.23;;
64903;SDS011;51401;48.882;12.598;2023-01-08T01:19:09;16.40;;;10.40;;
64903;SDS011;51401;48.882;12.598;2023-01-08T01:21:34;14.23;;;9.45;;
64903;SDS011;51401;48.882;12.598;2023-01-08T01:24:03;18.42;;;11.60;;
64903;SDS011;51401;48.882;12.598;2023-01-08T01:26:30;16.15;;;9.27;;
64903;SDS011;51401;48.882;12.598;2023-01-08T01:28:56;14.02;;;10.20;;
64903;SDS011;51401;48.882;12.598;2023-01-08T01:31:23;12.50;;;9.30;;
64903;SDS011;51401;48.882;12.598;2023-01-08T01:33:49;11.38;;;8.88;;
64903;SDS011;51401;48.882;12.598;2023-01-08T01:36:16;12.52;;;10.48;;
64903;SDS011;51401;48.882;12.598;2023-01-08T01:38:46;13.05;;;9.38;;
64903;SDS011;51401;48.882;12.598;2023-01-08T01:41:55;14.15;;;9.32;;
64903;SDS011;51401;48.882;12.598;2023-01-08T01:47:19;12.18;;;9.77;;
64903;SDS011;51401;48.882;12.598;2023-01-08T01:52:28;13.23;;;9.45;;
64903;SDS011;51401;48.882;12.598;2023-01-08T01:54:55;14.27;;;8.90;;
64903;SDS011;51401;48.882;12.598;2023-01-08T01:57:22;12.05;;;9.18;;
64903;SDS011;51401;48.882;12.598;2023-01-08T01:59:48;14.55;;;10.18;;
64903;SDS011;51401;48.882;12.598;2023-01-08T02:02:14;13.05;;;10.05;;
64903;SDS011;51401;48.882;12.598;2023-01-08T02:04:39;14.60;;;10.88;;
64903;SDS011;51401;48.882;12.598;2023-01-08T02:07:12;14.65;;;10.23;;
64903;SDS011;51401;48.882;12.598;2023-01-08T02:09:48;14.55;;;10.27;;
64903;SDS011;51401;48.882;12.598;2023-01-08T02:17:44;12.52;;;9.60;;
64903;SDS011;51401;48.882;12.598;2023-01-08T02:20:26;16.77;;;11.07;;
64903;SDS011;51401;48.882;12.598;2023-01-08T02:28:06;15.03;;;10.17;;
64903;SDS011;51401;48.882;12.598;2023-01-08T02:33:00;15.23;;;10.05;;
64903;SDS011;51401;48.882;12.598;2023-01-08T02:35:36;16.38;;;10.75;;
64903;SDS011;51401;48.882;12.598;2023-01-08T02:38:04;16.85;;;11.82;;
64903;SDS011;51401;48.882;12.598;2023-01-08T02:40:32;18.70;;;12.35;;
64903;SDS011;51401;48.882;12.598;2023-01-08T02:43:16;19.17;;;12.52;;
64903;SDS011;51401;48.882;12.598;2023-01-08T02:45:47;17.02;;;10.85;;
64903;SDS011;51401;48.882;12.598;2023-01-08T02:51:18;18.83;;;12.52;;
64903;SDS011;51401;48.882;12.598;2023-01-08T02:53:46;15.57;;;10.77;;
64903;SDS011;51401;48.882;12.598;2023-01-08T02:56:15;15.93;;;10.60;;
64903;SDS011;51401;48.882;12.598;2023-01-08T02:58:44;16.05;;;10.98;;
64903;SDS011;51401;48.882;12.598;2023-01-08T03:01:14;15.98;;;11.40;;
64903;SDS011;51401;48.882;12.598;2023-01-08T03:03:41;17.55;;;10.35;;
64903;SDS011;51401;48.882;12.598;2023-01-08T03:06:11;17.00;;;11.97;;
64903;SDS011;51401;48.882;12.598;2023-01-08T03:08:39;14.82;;;11.25;;
64903;SDS011;51401;48.882;12.598;2023-01-08T03:11:07;16.98;;;11.02;;
64903;SDS011;51401;48.882;12.598;2023-01-08T03:16:26;13.98;;;10.05;;
64903;SDS011;51401;48.882;12.598;2023-01-08T03:19:07;18.85;;;12.07;;
64903;SDS011;51401;48.882;12.598;2023-01-08T03:21:35;17.13;;;11.02;;
64903;SDS011;51401;48.882;12.598;2023-01-08T03:24:02;16.42;;;11.40;;
64903;SDS011;51401;48.882;12.598;2023-01-08T03:26:28;17.77;;;11.75;;
64903;SDS011;51401;48.882;12.598;2023-01-08T03:28:56;15.05;;;10.68;;
64903;SDS011;51401;48.882;12.598;2023-01-08T03:31:22;15.70;;;11.60;;
64903;SDS011;51401;48.882;12.598;2023-01-08T03:33:51;16.75;;;11.00;;
64903;SDS011;51401;48.882;12.598;2023-01-08T03:36:20;17.30;;;11.52;;
64903;SDS011;51401;48.882;12.598;2023-01-08T03:41:34;15.20;;;11.20;;
64903;SDS011;51401;48.882;12.598;2023-01-08T03:44:00;18.80;;;12.43;;
64903;SDS011;51401;48.882;12.598;2023-01-08T03:46:31;15.18;;;10.55;;
64903;SDS011;51401;48.882;12.598;2023-01-08T03:48:58;17.42;;;11.20;;
64903;SDS011;51401;48.882;12.598;2023-01-08T03:51:24;16.33;;;10.85;;
64903;SDS011;51401;48.882;12.598;2023-01-08T03:53:51;18.40;;;11.57;;
64903;SDS011;51401;48.882;12.598;2023-01-08T03:56:20;18.98;;;11.35;;
64903;SDS011;51401;48.882;12.598;2023-01-08T03:58:45;18.58;;;11.23;;
64903;SDS011;51401;48.882;12.598;2023-01-08T04:01:12;15.43;;;10.85;;
64903;SDS011;51401;48.882;12.598;2023-01-08T04:03:37;18.98;;;12.95;;
64903;SDS011;51401;48.882;12.598;2023-01-08T04:06:02;16.92;;;10.95;;
64903;SDS011;51401;48.882;12.598;2023-01-08T04:08:28;18.75;;;11.60;;
64903;SDS011;51401;48.882;12.598;2023-01-08T04:10:53;23.17;;;10.95;;
64903;SDS011;51401;48.882;12.598;2023-01-08T04:13:18;16.50;;;11.25;;
64903;SDS011;51401;48.882;12.598;2023-01-08T04:15:47;17.00;;;10.93;;
64903;SDS011;51401;48.882;12.598;2023-01-08T04:18:13;16.65;;;9.52;;
64903;SDS011;51401;48.882;12.598;2023-01-08T04:20:38;20.48;;;10.88;;
64903;SDS011;51401;48.882;12.598;2023-01-08T04:23:03;16.65;;;10.63;;
64903;SDS011;51401;48.882;12.598;2023-01-08T04:25:29;21.38;;;11.00;;
64903;SDS011;51401;48.882;12.598;2023-01-08T04:27:54;21.92;;;10.82;;
64903;SDS011;51401;48.882;12.598;2023-01-08T04:30:19;25.80;;;11.05;;
64903;SDS011;51401;48.882;12.598;2023-01-08T04:32:44;16.67;;;10.27;;
64903;SDS011;51401;48.882;12.598;2023-01-08T04:35:10;19.65;;;10.18;;
64903;SDS011;51401;48.882;12.598;2023-01-08T04:37:35;26.05;;;10.90;;
64903;SDS011;51401;48.882;12.598;2023-01-08T04:40:00;16.15;;;10.40;;
64903;SDS011;51401;48.882;12.598;2023-01-08T04:42:26;10.98;;;8.35;;
64903;SDS011;51401;48.882;12.598;2023-01-08T04:44:51;16.85;;;9.45;;
64903;SDS011;51401;48.882;12.598;2023-01-08T04:47:16;18.55;;;9.82;;
64903;SDS011;51401;48.882;12.598;2023-01-08T04:49:41;14.80;;;10.35;;
64903;SDS011;51401;48.882;12.598;2023-01-08T04:52:07;17.48;;;10.38;;
64903;SDS011;51401;48.882;12.598;2023-01-08T04:54:32;14.70;;;9.15;;
64903;SDS011;51401;48.882;12.598;2023-01-08T04:56:57;17.75;;;9.98;;
64903;SDS011;51401;48.882;12.598;2023-01-08T04:59:22;16.88;;;10.18;;
64903;SDS011;51401;48.882;12.598;2023-01-08T05:01:48;19.55;;;10.35;;
64903;SDS011;51401;48.882;12.598;2023-01-08T05:04:13;14.55;;;10.18;;
64903;SDS011;51401;48.882;12.598;2023-01-08T05:06:38;13.43;;;8.77;;
64903;SDS011;51401;48.882;12.598;2023-01-08T05:09:04;12.35;;;9.10;;
64903;SDS011;51401;48.882;12.598;2023-01-08T05:11:29;14.38;;;10.68;;
64903;SDS011;51401;48.882;12.598;2023-01-08T05:13:54;21.67;;;10.55;;
64903;SDS011;51401;48.882;12.598;2023-01-08T05:16:20;15.73;;;9.05;;
64903;SDS011;51401;48.882;12.598;2023-01-08T05:18:46;15.10;;;8.93;;
64903;SDS011;51401;48.882;12.598;2023-01-08T05:21:12;16.02;;;8.77;;
64903;SDS011;51401;48.882;12.598;2023-01-08T05:23:37;16.20;;;9.32;;
64903;SDS011;51401;48.882;12.598;2023-01-08T05:26:04;20.25;;;10.07;;
64903;SDS011;51401;48.882;12.598;2023-01-08T05:28:30;21.30;;;9.43;;
64903;SDS011;51401;48.882;12.598;2023-01-08T05:30:56;16.40;;;8.57;;
64903;SDS011;51401;48.882;12.598;2023-01-08T05:33:22;19.65;;;10.25;;
64903;SDS011;51401;48.882;12.598;2023-01-08T05:35:48;17.83;;;9.90;;
64903;SDS011;51401;48.882;12.598;2023-01-08T05:38:13;14.90;;;9.57;;
64903;SDS011;51401;48.882;12.598;2023-01-08T05:40:38;28.50;;;9.57;;
64903;SDS011;51401;48.882;12.598;2023-01-08T05:43:04;16.45;;;10.35;;
64903;SDS011;51401;48.882;12.598;2023-01-08T05:45:30;13.93;;;8.68;;
64903;SDS011;51401;48.882;12.598;2023-01-08T05:47:55;19.10;;;10.07;;
64903;SDS011;51401;48.882;12.598;2023-01-08T05:50:21;17.95;;;9.43;;
64903;SDS011;51401;48.882;12.598;2023-01-08T05:52:46;12.43;;;9.98;;
64903;SDS011;51401;48.882;12.598;2023-01-08T05:55:11;18.00;;;9.13;;
64903;SDS011;51401;48.882;12.598;2023-01-08T05:57:37;15.88;;;8.85;;
64903;SDS011;51401;48.882;12.598;2023-01-08T06:00:03;15.25;;;8.48;;
64903;SDS011;51401;48.882;12.598;2023-01-08T06:02:30;16.70;;;9.57;;
64903;SDS011;51401;48.882;12.598;2023-01-08T06:04:56;14.48;;;8.63;;
64903;SDS011;51401;48.882;12.598;2023-01-08T06:07:21;19.63;;;11.50;;
64903;SDS011;51401;48.882;12.598;2023-01-08T06:09:46;20.42;;;13.68;;
64903;SDS011;51401;48.882;12.598;2023-01-08T06:12:11;16.85;;;11.73;;
64903;SDS011;51401;48.882;12.598;2023-01-08T06:14:37;17.08;;;11.00;;
64903;SDS011;51401;48.882;12.598;2023-01-08T06:17:02;13.32;;;9.63;;
64903;SDS011;51401;48.882;12.598;2023-01-08T06:19:27;23.98;;;11.25;;
64903;SDS011;51401;48.882;12.598;2023-01-08T06:21:52;18.17;;;11.68;;
64903;SDS011;51401;48.882;12.598;2023-01-08T06:24:18;16.00;;;10.02;;
64903;SDS011;51401;48.882;12.598;2023-01-08T06:26:43;17.45;;;12.00;;
64903;SDS011;51401;48.882;12.598;2023-01-08T06:29:08;15.73;;;10.05;;
64903;SDS011;51401;48.882;12.598;2023-01-08T06:31:34;14.63;;;10.25;;
64903;SDS011;51401;48.882;12.598;2023-01-08T06:33:59;16.02;;;10.35;;
64903;SDS011;51401;48.882;12.598;2023-01-08T06:36:25;15.30;;;10.05;;
64903;SDS011;51401;48.882;12.598;2023-01-08T06:38:50;16.00;;;11.02;;
64903;SDS011;51401;48.882;12.598;2023-01-08T06:41:15;17.65;;;10.63;;
64903;SDS011;51401;48.882;12.598;2023-01-08T06:43:41;15.65;;;9.95;;
64903;SDS011;51401;48.882;12.598;2023-01-08T06:46:07;17.67;;;10.30;;
64903;SDS011;51401;48.882;12.598;2023-01-08T06:48:33;18.90;;;10.05;;
64903;SDS011;51401;48.882;12.598;2023-01-08T06:51:00;22.02;;;11.57;;
64903;SDS011;51401;48.882;12.598;2023-01-08T06:53:26;19.75;;;11.10;;
64903;SDS011;51401;48.882;12.598;2023-01-08T06:55:51;17.33;;;10.95;;
64903;SDS011;51401;48.882;12.598;2023-01-08T06:58:21;20.40;;;10.77;;
64903;SDS011;51401;48.882;12.598;2023-01-08T07:00:47;17.85;;;10.82;;
64903;SDS011;51401;48.882;12.598;2023-01-08T07:03:13;15.82;;;10.07;;
64903;SDS011;51401;48.882;12.598;2023-01-08T07:05:38;18.98;;;10.30;;
64903;SDS011;51401;48.882;12.598;2023-01-08T07:08:03;15.68;;;10.10;;
64903;SDS011;51401;48.882;12.598;2023-01-08T07:10:29;22.33;;;11.23;;
64903;SDS011;51401;48.882;12.598;2023-01-08T07:12:55;19.10;;;11.38;;
64903;SDS011;51401;48.882;12.598;2023-01-08T07:15:21;19.23;;;10.63;;
64903;SDS011;51401;48.882;12.598;2023-01-08T07:17:46;17.35;;;11.07;;
64903;SDS011;51401;48.882;12.598;2023-01-08T07:20:11;18.05;;;10.93;;
64903;SDS011;51401;48.882;12.598;2023-01-08T07:22:36;21.05;;;11.68;;
64903;SDS011;51401;48.882;12.598;2023-01-08T07:25:02;19.25;;;11.48;;
64903;SDS011;51401;48.882;12.598;2023-01-08T07:27:29;21.88;;;11.25;;
64903;SDS011;51401;48.882;12.598;2023-01-08T07:29:54;21.02;;;12.82;;
64903;SDS011;51401;48.882;12.598;2023-01-08T07:32:19;20.98;;;10.52;;
64903;SDS011;51401;48.882;12.598;2023-01-08T07:34:45;24.40;;;12.05;;
64903;SDS011;51401;48.882;12.598;2023-01-08T07:37:10;24.08;;;12.18;;
64903;SDS011;51401;48.882;12.598;2023-01-08T07:39:35;20.08;;;11.82;;
64903;SDS011;51401;48.882;12.598;2023-01-08T07:42:01;19.83;;;12.52;;
64903;SDS011;51401;48.882;12.598;2023-01-08T07:44:26;19.10;;;10.98;;
64903;SDS011;51401;48.882;12.598;2023-01-08T07:46:51;18.55;;;12.23;;
64903;SDS011;51401;48.882;12.598;2023-01-08T07:49:16;22.40;;;13.00;;
64903;SDS011;51401;48.882;12.598;2023-01-08T07:51:42;21.85;;;12.13;;
64903;SDS011;51401;48.882;12.598;2023-01-08T07:54:07;20.40;;;11.23;;
64903;SDS011;51401;48.882;12.598;2023-01-08T07:56:32;22.45;;;11.63;;
64903;SDS011;51401;48.882;12.598;2023-01-08T07:58:58;20.58;;;10.73;;
64903;SDS011;51401;48.882;12.598;2023-01-08T08:01:23;20.13;;;11.88;;
64903;SDS011;51401;48.882;12.598;2023-01-08T08:03:50;20.67;;;12.20;;
64903;SDS011;51401;48.882;12.598;2023-01-08T08:06:15;20.40;;;11.75;;
64903;SDS011;51401;48.882;12.598;2023-01-08T08:08:40;22.85;;;11.93;;
64903;SDS011;51401;48.882;12.598;2023-01-08T08:11:06;21.85;;;11.38;;
64903;SDS011;51401;48.882;12.598;2023-01-08T08:13:31;18.55;;;10.65;;
64903;SDS011;51401;48.882;12.598;2023-01-08T08:16:00;19.75;;;9.98;;
64903;SDS011;51401;48.882;12.598;2023-01-08T08:18:26;17.73;;;9.90;;
64903;SDS011;51401;48.882;12.598;2023-01-08T08:20:51;20.17;;;10.63;;
64903;SDS011;51401;48.882;12.598;2023-01-08T08:23:16;21.13;;;11.98;;
64903;SDS011;51401;48.882;12.598;2023-01-08T08:25:42;19.45;;;10.68;;
64903;SDS011;51401;48.882;12.598;2023-01-08T08:28:08;20.40;;;10.98;;
64903;SDS011;51401;48.882;12.598;2023-01-08T08:30:35;17.90;;;10.30;;
64903;SDS011;51401;48.882;12.598;2023-01-08T08:33:01;22.42;;;11.32;;
64903;SDS011;51401;48.882;12.598;2023-01-08T08:35:28;21.52;;;10.70;;
64903;SDS011;51401;48.882;12.598;2023-01-08T08:37:54;18.85;;;10.88;;
64903;SDS011;51401;48.882;12.598;2023-01-08T08:40:20;23.17;;;11.25;;
64903;SDS011;51401;48.882;12.598;2023-01-08T08:42:46;20.13;;;9.82;;
64903;SDS011;51401;48.882;12.598;2023-01-08T08:45:11;19.15;;;10.60;;
64903;SDS011;51401;48.882;12.598;2023-01-08T08:47:37;16.20;;;9.30;;
64903;SDS011;51401;48.882;12.598;2023-01-08T08:50:03;17.50;;;11.82;;
64903;SDS011;51401;48.882;12.598;2023-01-08T08:52:30;21.52;;;11.80;;
64903;SDS011;51401;48.882;12.598;2023-01-08T08:54:56;20.73;;;11.02;;
64903;SDS011;51401;48.882;12.598;2023-01-08T08:57:25;20.92;;;10.07;;
64903;SDS011;51401;48.882;12.598;2023-01-08T08:59:51;20.52;;;10.68;;
64903;SDS011;51401;48.882;12.598;2023-01-08T09:02:17;24.50;;;11.52;;
64903;SDS011;51401;48.882;12.598;2023-01-08T09:04:42;25.58;;;11.02;;
64903;SDS011;51401;48.882;12.598;2023-01-08T09:07:07;24.70;;;10.32;;
64903;SDS011;51401;48.882;12.598;2023-01-08T09:09:33;21.23;;;9.88;;
64903;SDS011;51401;48.882;12.598;2023-01-08T09:11:58;19.08;;;11.45;;
64903;SDS011;51401;48.882;12.598;2023-01-08T09:14:23;18.25;;;11.15;;
64903;SDS011;51401;48.882;12.598;2023-01-08T09:16:48;21.92;;;11.48;;
64903;SDS011;51401;48.882;12.598;2023-01-08T09:19:14;23.60;;;11.05;;
64903;SDS011;51401;48.882;12.598;2023-01-08T09:21:39;19.63;;;11.77;;
64903;SDS011;51401;48.882;12.598;2023-01-08T09:24:05;19.30;;;10.68;;
64903;SDS011;51401;48.882;12.598;2023-01-08T09:26:31;26.83;;;14.25;;
64903;SDS011;51401;48.882;12.598;2023-01-08T09:28:59;24.55;;;13.27;;
64903;SDS011;51401;48.882;12.598;2023-01-08T09:31:25;17.23;;;11.00;;
64903;SDS011;51401;48.882;12.598;2023-01-08T09:33:50;20.35;;;10.00;;
64903;SDS011;51401;48.882;12.598;2023-01-08T09:36:15;24.80;;;13.35;;
64903;SDS011;51401;48.882;12.598;2023-01-08T09:38:41;20.08;;;10.63;;
64903;SDS011;51401;48.882;12.598;2023-01-08T09:41:08;19.85;;;10.65;;
64903;SDS011;51401;48.882;12.598;2023-01-08T09:43:36;17.10;;;9.52;;
64903;SDS011;51401;48.882;12.598;2023-01-08T09:46:07;16.08;;;8.90;;
64903;SDS011;51401;48.882;12.598;2023-01-08T09:48:35;18.80;;;10.48;;
64903;SDS011;51401;48.882;12.598;2023-01-08T09:51:01;20.75;;;9.75;;
64903;SDS011;51401;48.882;12.598;2023-01-08T09:53:27;23.23;;;11.85;;
64903;SDS011;51401;48.882;12.598;2023-01-08T09:55:54;19.92;;;11.23;;
64903;SDS011;51401;48.882;12.598;2023-01-08T10:00:51;17.90;;;9.20;;
64903;SDS011;51401;48.882;12.598;2023-01-08T10:03:18;17.67;;;10.43;;
64903;SDS011;51401;48.882;12.598;2023-01-08T10:05:43;21.30;;;11.82;;
64903;SDS011;51401;48.882;12.598;2023-01-08T10:08:10;16.60;;;9.90;;
64903;SDS011;51401;48.882;12.598;2023-01-08T10:10:38;19.88;;;9.80;;
64903;SDS011;51401;48.882;12.598;2023-01-08T10:13:04;20.90;;;10.48;;
64903;SDS011;51401;48.882;12.598;2023-01-08T10:15:30;18.98;;;9.52;;
64903;SDS011;51401;48.882;12.598;2023-01-08T10:20:52;19.83;;;11.20;;
64903;SDS011;51401;48.882;12.598;2023-01-08T10:23:18;18.10;;;9.93;;
64903;SDS011;51401;48.882;12.598;2023-01-08T10:25:48;20.40;;;11.15;;
64903;SDS011;51401;48.882;12.598;2023-01-08T10:28:18;20.98;;;11.70;;
64903;SDS011;51401;48.882;12.598;2023-01-08T10:30:45;21.98;;;9.93;;
64903;SDS011;51401;48.882;12.598;2023-01-08T10:33:12;22.35;;;10.65;;
64903;SDS011;51401;48.882;12.598;2023-01-08T10:35:49;18.50;;;11.10;;
64903;SDS011;51401;48.882;12.598;2023-01-08T10:38:25;20.77;;;10.98;;
64903;SDS011;51401;48.882;12.598;2023-01-08T10:40:55;19.98;;;10.52;;
64903;SDS011;51401;48.882;12.598;2023-01-08T10:43:23;25.52;;;11.70;;
64903;SDS011;51401;48.882;12.598;2023-01-08T10:45:57;19.98;;;11.75;;
64903;SDS011;51401;48.882;12.598;2023-01-08T10:48:49;18.92;;;10.82;;
64903;SDS011;51401;48.882;12.598;2023-01-08T10:51:20;18.00;;;10.07;;
64903;SDS011;51401;48.882;12.598;2023-01-08T10:53:48;21.40;;;10.65;;
64903;SDS011;51401;48.882;12.598;2023-01-08T10:56:20;20.58;;;11.02;;
64903;SDS011;51401;48.882;12.598;2023-01-08T10:58:46;20.67;;;12.50;;
64903;SDS011;51401;48.882;12.598;2023-01-08T11:01:15;24.63;;;11.40;;
64903;SDS011;51401;48.882;12.598;2023-01-08T11:03:47;24.75;;;11.23;;
64903;SDS011;51401;48.882;12.598;2023-01-08T11:06:18;21.95;;;11.32;;
64903;SDS011;51401;48.882;12.598;2023-01-08T11:08:50;18.75;;;10.60;;
64903;SDS011;51401;48.882;12.598;2023-01-08T11:11:17;22.20;;;10.40;;
64903;SDS011;51401;48.882;12.598;2023-01-08T11:13:50;21.25;;;12.40;;
64903;SDS011;51401;48.882;12.598;2023-01-08T11:16:20;19.10;;;10.57;;
64903;SDS011;51401;48.882;12.598;2023-01-08T11:18:48;19.13;;;9.98;;
64903;SDS011;51401;48.882;12.598;2023-01-08T11:21:19;23.10;;;11.32;;
64903;SDS011;51401;48.882;12.598;2023-01-08T11:29:46;17.48;;;9.70;;
64903;SDS011;51401;48.882;12.598;2023-01-08T11:37:20;16.13;;;9.68;;
64903;SDS011;51401;48.882;12.598;2023-01-08T11:39:59;18.63;;;11.13;;
64903;SDS011;51401;48.882;12.598;2023-01-08T11:45:24;21.08;;;9.90;;
64903;SDS011;51401;48.882;12.598;2023-01-08T11:51:04;20.27;;;11.45;;
64903;SDS011;51401;48.882;12.598;2023-01-08T11:54:13;20.63;;;11.05;;
64903;SDS011;51401;48.882;12.598;2023-01-08T11:59:27;19.88;;;10.73;;
64903;SDS011;51401;48.882;12.598;2023-01-08T12:07:34;20.10;;;10.60;;
64903;SDS011;51401;48.882;12.598;2023-01-08T12:10:19;19.08;;;10.40;;
64903;SDS011;51401;48.882;12.598;2023-01-08T12:21:14;19.30;;;10.00;;
64903;SDS011;51401;48.882;12.598;2023-01-08T12:23:56;21.85;;;11.40;;
64903;SDS011;51401;48.882;12.598;2023-01-08T12:26:38;17.63;;;10.45;;
64903;SDS011;51401;48.882;12.598;2023-01-08T12:29:13;21.23;;;11.05;;
64903;SDS011;51401;48.882;12.598;2023-01-08T12:35:22;20.67;;;9.80;;
64903;SDS011;51401;48.882;12.598;2023-01-08T12:37:51;18.50;;;10.05;;
64903;SDS011;51401;48.882;12.598;2023-01-08T12:40:23;20.27;;;10.48;;
64903;SDS011;51401;48.882;12.598;2023-01-08T12:42:49;18.50;;;10.55;;
64903;SDS011;51401;48.882;12.598;2023-01-08T12:45:16;19.35;;;11.07;;
64903;SDS011;51401;48.882;12.598;2023-01-08T12:47:48;18.48;;;11.15;;
64903;SDS011;51401;48.882;12.598;2023-01-08T12:55:57;16.35;;;10.00;;
64903;SDS011;51401;48.882;12.598;2023-01-08T12:58:37;15.70;;;9.60;;
64903;SDS011;51401;48.882;12.598;2023-01-08T13:01:22;17.33;;;9.95;;
64903;SDS011;51401;48.882;12.598;2023-01-08T13:03:54;18.50;;;9.90;;
64903;SDS011;51401;48.882;12.598;2023-01-08T13:06:22;16.08;;;9.75;;
64903;SDS011;51401;48.882;12.598;2023-01-08T13:08:48;16.67;;;9.75;;
64903;SDS011;51401;48.882;12.598;2023-01-08T13:11:26;15.48;;;8.55;;
64903;SDS011;51401;48.882;12.598;2023-01-08T13:14:13;17.70;;;9.73;;
64903;SDS011;51401;48.882;12.598;2023-01-08T13:16:40;17.67;;;10.07;;
64903;SDS011;51401;48.882;12.598;2023-01-08T13:19:43;20.15;;;10.77;;
64903;SDS011;51401;48.882;12.598;2023-01-08T13:22:14;25.75;;;12.70;;
64903;SDS011;51401;48.882;12.598;2023-01-08T13:24:48;23.73;;;11.43;;
64903;SDS011;51401;48.882;12.598;2023-01-08T13:29:46;19.48;;;10.73;;
64903;SDS011;51401;48.882;12.598;2023-01-08T13:35:13;22.67;;;11.30;;
64903;SDS011;51401;48.882;12.598;2023-01-08T13:37:45;23.23;;;13.50;;
64903;SDS011;51401;48.882;12.598;2023-01-08T13:43:04;22.45;;;12.18;;
64903;SDS011;51401;48.882;12.598;2023-01-08T13:45:35;22.08;;;11.77;;
64903;SDS011;51401;48.882;12.598;2023-01-08T13:48:00;19.42;;;11.75;;
64903;SDS011;51401;48.882;12.598;2023-01-08T13:50:27;19.73;;;11.45;;
64903;SDS011;51401;48.882;12.598;2023-01-08T13:53:00;22.67;;;12.20;;
64903;SDS011;51401;48.882;12.598;2023-01-08T13:55:29;19.83;;;11.05;;
64903;SDS011;51401;48.882;12.598;2023-01-08T13:57:58;23.75;;;13.60;;
64903;SDS011;51401;48.882;12.598;2023-01-08T14:00:43;19.77;;;12.52;;
64903;SDS011;51401;48.882;12.598;2023-01-08T14:05:45;20.70;;;12.07;;
64903;SDS011;51401;48.882;12.598;2023-01-08T14:08:20;19.17;;;11.15;;
64903;SDS011;51401;48.882;12.598;2023-01-08T14:10:47;19.77;;;11.55;;
64903;SDS011;51401;48.882;12.598;2023-01-08T14:13:12;19.35;;;11.60;;
64903;SDS011;51401;48.882;12.598;2023-01-08T14:15:40;17.15;;;11.07;;
64903;SDS011;51401;48.882;12.598;2023-01-08T14:18:05;19.92;;;12.38;;
64903;SDS011;51401;48.882;12.598;2023-01-08T14:20:38;17.45;;;10.77;;
64903;SDS011;51401;48.882;12.598;2023-01-08T14:23:12;19.98;;;11.30;;
64903;SDS011;51401;48.882;12.598;2023-01-08T14:25:46;17.70;;;10.70;;
64903;SDS011;51401;48.882;12.598;2023-01-08T14:28:17;24.27;;;13.57;;
64903;SDS011;51401;48.882;12.598;2023-01-08T14:30:47;21.05;;;11.88;;
64903;SDS011;51401;48.882;12.598;2023-01-08T14:33:13;20.42;;;11.77;;
64903;SDS011;51401;48.882;12.598;2023-01-08T14:35:40;34.10;;;16.67;;
64903;SDS011;51401;48.882;12.598;2023-01-08T14:38:09;28.15;;;14.45;;
64903;SDS011;51401;48.882;12.598;2023-01-08T14:40:37;24.60;;;13.60;;
64903;SDS011;51401;48.882;12.598;2023-01-08T14:43:07;17.70;;;10.90;;
64903;SDS011;51401;48.882;12.598;2023-01-08T14:45:35;22.05;;;11.45;;
64903;SDS011;51401;48.882;12.598;2023-01-08T14:50:41;25.95;;;13.23;;
64903;SDS011;51401;48.882;12.598;2023-01-08T14:56:14;21.20;;;12.68;;
64903;SDS011;51401;48.882;12.598;2023-01-08T14:58:46;27.88;;;14.57;;
64903;SDS011;51401;48.882;12.598;2023-01-08T15:01:16;24.80;;;13.38;;
64903;SDS011;51401;48.882;12.598;2023-01-08T15:03:50;21.80;;;12.68;;
64903;SDS011;51401;48.882;12.598;2023-01-08T15:06:27;18.85;;;11.10;;
64903;SDS011;51401;48.882;12.598;2023-01-08T15:08:54;21.90;;;12.73;;
64903;SDS011;51401;48.882;12.598;2023-01-08T15:11:21;20.80;;;11.90;;
64903;SDS011;51401;48.882;12.598;2023-01-08T15:13:48;17.65;;;11.50;;
64903;SDS011;51401;48.882;12.598;2023-01-08T15:16:34;20.45;;;12.68;;
64903;SDS011;51401;48.882;12.598;2023-01-08T15:19:10;22.67;;;12.38;;
64903;SDS011;51401;48.882;12.598;2023-01-08T15:21:44;22.95;;;12.55;;
64903;SDS011;51401;48.882;12.598;2023-01-08T15:24:19;21.42;;;12.13;;
64903;SDS011;51401;48.882;12.598;2023-01-08T15:26:47;22.85;;;12.55;;
64903;SDS011;51401;48.882;12.598;2023-01-08T15:29:14;22.30;;;13.48;;
64903;SDS011;51401;48.882;12.598;2023-01-08T15:31:44;23.80;;;13.82;;
64903;SDS011;51401;48.882;12.598;2023-01-08T15:34:11;23.38;;;13.85;;
64903;SDS011;51401;48.882;12.598;2023-01-08T15:36:36;23.40;;;13.10;;
64903;SDS011;51401;48.882;12.598;2023-01-08T15:39:02;25.85;;;14.27;;
64903;SDS011;51401;48.882;12.598;2023-01-08T15:41:36;27.45;;;13.95;;
64903;SDS011;51401;48.882;12.598;2023-01-08T15:44:20;23.88;;;11.80;;
64903;SDS011;51401;48.882;12.598;2023-01-08T15:46:46;27.40;;;13.50;;
64903;SDS011;51401;48.882;12.598;2023-01-08T15:49:11;25.30;;;13.63;;